createdAt,value
2018-12-21T00:00:28.368Z,11.94
2018-12-21T00:05:33.360Z,12.03
2018-12-21T00:10:38.244Z,12.05
2018-12-21T00:15:43.074Z,12.04
2018-12-21T00:20:47.878Z,12.05
2018-12-21T00:25:52.769Z,12.14
2018-12-21T00:31:01.665Z,12.17
2018-12-21T00:36:10.524Z,12.23
2018-12-21T00:41:15.034Z,12.27
2018-12-21T00:46:21.849Z,12.32
2018-12-21T00:51:30.339Z,12.34
2018-12-21T00:56:33.729Z,12.35
2018-12-21T01:01:38.689Z,12.37
2018-12-21T01:06:43.541Z,12.38
2018-12-21T01:11:48.408Z,12.37
2018-12-21T01:16:53.154Z,12.37
2018-12-21T01:21:57.919Z,12.37
2018-12-21T01:27:12.319Z,12.37
2018-12-21T01:32:17.483Z,12.38
2018-12-21T01:37:23.303Z,12.41
2018-12-21T01:42:28.261Z,12.43
2018-12-21T01:47:33.153Z,12.43
2018-12-21T01:52:38.043Z,12.43
2018-12-21T01:57:42.852Z,12.42
2018-12-21T02:02:47.591Z,12.43
2018-12-21T02:07:52.464Z,12.43
2018-12-21T02:12:57.364Z,12.41
2018-12-21T02:18:02.249Z,12.42
2018-12-21T02:23:19.599Z,12.42
2018-12-21T02:28:24.199Z,12.39
2018-12-21T02:33:29.049Z,12.38
2018-12-21T02:38:34.029Z,12.40
2018-12-21T02:43:38.890Z,12.38
2018-12-21T02:48:43.635Z,12.33
2018-12-21T02:54:00.139Z,12.35
2018-12-21T02:59:05.191Z,12.34
2018-12-21T03:04:10.245Z,12.29
2018-12-21T03:09:15.509Z,12.27
2018-12-21T03:19:58.424Z,12.21
2018-12-21T03:25:14.734Z,12.21
2018-12-21T03:30:19.494Z,12.18
2018-12-21T03:35:24.547Z,12.13
2018-12-21T03:40:29.499Z,12.11
2018-12-21T03:45:34.400Z,12.06
2018-12-21T03:50:39.234Z,12.00
2018-12-21T03:55:44.094Z,11.93
2018-12-21T04:00:48.934Z,11.88
2018-12-21T04:05:53.894Z,11.90
2018-12-21T04:10:58.775Z,11.82
2018-12-21T04:16:03.711Z,11.69
2018-12-21T04:21:08.545Z,11.55
2018-12-21T04:26:13.519Z,11.35
2018-12-21T04:31:18.444Z,11.30
2018-12-21T04:36:23.283Z,11.25
2018-12-21T04:41:28.244Z,11.28
2018-12-21T04:46:33.096Z,11.24
2018-12-21T04:51:37.954Z,11.18
2018-12-21T04:56:42.844Z,11.11
2018-12-21T05:01:47.730Z,11.02
2018-12-21T05:06:52.678Z,11.00
2018-12-21T05:11:57.988Z,10.95
2018-12-21T05:17:02.999Z,10.87
2018-12-21T05:22:07.894Z,10.80
2018-12-21T05:27:12.703Z,10.75
2018-12-21T05:32:17.654Z,10.70
2018-12-21T05:37:23.432Z,10.66
2018-12-21T05:42:28.450Z,10.56
2018-12-21T05:53:01.684Z,10.38
2018-12-21T05:58:06.600Z,10.38
2018-12-21T06:03:11.635Z,10.39
2018-12-21T06:08:16.453Z,10.26
2018-12-21T06:13:21.239Z,10.34
2018-12-21T06:18:26.079Z,10.38
2018-12-21T06:23:30.924Z,10.41
2018-12-21T06:28:35.771Z,10.38
2018-12-21T06:33:40.628Z,10.33
2018-12-21T06:38:45.459Z,10.30
2018-12-21T06:43:50.421Z,10.32
2018-12-21T06:48:55.274Z,10.32
2018-12-21T06:54:00.070Z,10.27
2018-12-21T06:59:04.866Z,10.26
2018-12-21T07:04:09.780Z,10.28
2018-12-21T07:09:14.738Z,10.28
2018-12-21T07:14:19.579Z,10.36
2018-12-21T07:19:24.459Z,10.39
2018-12-21T07:24:29.386Z,10.38
2018-12-21T07:29:34.204Z,10.39
2018-12-21T07:34:39.070Z,10.44
2018-12-21T07:39:44.036Z,10.45
2018-12-21T07:44:49.098Z,10.46
2018-12-21T08:06:20.063Z,10.47
2018-12-21T08:11:24.863Z,10.47
2018-12-21T08:16:29.879Z,10.48
2018-12-21T08:21:34.848Z,10.49
2018-12-21T08:26:39.708Z,10.46
2018-12-21T08:37:07.333Z,10.50
2018-12-21T08:42:12.173Z,10.53
2018-12-21T08:47:17.238Z,10.57
2018-12-21T08:52:23.263Z,10.54
2018-12-21T08:57:28.138Z,10.53
2018-12-21T09:02:33.055Z,10.54
2018-12-21T09:07:37.848Z,10.53
2018-12-21T09:12:42.690Z,10.60
2018-12-21T09:17:47.649Z,10.59
2018-12-21T09:22:52.655Z,10.58
2018-12-21T09:27:57.552Z,10.58
2018-12-21T09:33:02.478Z,10.49
2018-12-21T09:38:07.283Z,10.48
2018-12-21T09:43:11.993Z,10.46
2018-12-21T09:48:17.045Z,10.42
2018-12-21T09:53:21.857Z,10.45
2018-12-21T09:58:26.792Z,10.49
2018-12-21T10:03:31.697Z,10.43
2018-12-21T10:08:36.471Z,10.42
2018-12-21T10:13:41.398Z,10.51
2018-12-21T10:18:46.348Z,10.67
2018-12-21T10:23:52.167Z,10.73
2018-12-21T10:28:57.022Z,10.74
2018-12-21T10:34:01.862Z,10.77
2018-12-21T10:39:08.332Z,10.75
2018-12-21T10:44:13.288Z,10.83
2018-12-21T10:49:18.338Z,10.87
2018-12-21T10:54:26.995Z,10.84
2018-12-21T10:59:30.953Z,10.90
2018-12-21T11:04:35.861Z,10.83
2018-12-21T11:09:40.642Z,11.03
2018-12-21T11:14:45.392Z,11.21
2018-12-21T11:19:50.158Z,11.19
2018-12-21T11:24:54.952Z,11.12
2018-12-21T11:29:59.867Z,11.16
2018-12-21T11:35:04.846Z,11.03
2018-12-21T11:40:09.937Z,10.95
2018-12-21T11:50:53.555Z,11.09
2018-12-21T11:55:58.400Z,11.41
2018-12-21T12:01:03.310Z,11.61
2018-12-21T12:06:08.205Z,11.45
2018-12-21T12:11:13.124Z,11.52
2018-12-21T12:16:18.045Z,11.57
2018-12-21T12:21:23.965Z,11.76
2018-12-21T12:26:28.995Z,11.93
2018-12-21T12:31:34.026Z,12.28
2018-12-21T12:36:38.844Z,12.36
2018-12-21T12:41:43.786Z,12.40
2018-12-21T12:46:48.835Z,12.40
2018-12-21T12:51:53.875Z,12.22
2018-12-21T12:56:58.816Z,12.14
2018-12-21T13:02:03.654Z,11.94
2018-12-21T13:07:08.550Z,11.82
2018-12-21T13:12:13.345Z,11.72
2018-12-21T13:17:18.250Z,11.62
2018-12-21T13:22:23.245Z,11.77
2018-12-21T13:27:28.085Z,11.92
2018-12-21T13:32:33.134Z,11.76
2018-12-21T13:37:38.065Z,11.80
2018-12-21T13:42:42.873Z,11.86
2018-12-21T13:47:47.866Z,11.88
2018-12-21T13:52:52.860Z,11.72
2018-12-21T13:57:57.921Z,11.64
2018-12-21T14:03:02.900Z,11.59
2018-12-21T14:08:07.940Z,11.58
2018-12-21T14:13:12.866Z,11.62
2018-12-21T14:18:17.801Z,11.60
2018-12-21T14:23:23.995Z,11.54
2018-12-21T14:28:28.908Z,11.58
2018-12-21T14:33:33.681Z,11.56
2018-12-21T14:38:38.469Z,11.50
2018-12-21T14:43:43.335Z,11.46
2018-12-21T14:48:48.240Z,11.47
2018-12-21T14:53:53.270Z,11.41
2018-12-21T14:58:58.310Z,11.48
2018-12-21T15:04:03.231Z,11.44
2018-12-21T15:09:08.785Z,11.47
2018-12-21T15:14:13.526Z,11.45
2018-12-21T15:19:18.400Z,11.36
2018-12-21T15:24:23.325Z,11.35
2018-12-21T15:29:28.211Z,11.35
2018-12-21T15:34:33.142Z,11.35
2018-12-21T15:39:38.059Z,11.34
2018-12-21T15:44:43.031Z,11.31
2018-12-21T15:49:47.821Z,11.31
2018-12-21T15:54:52.711Z,11.29
2018-12-21T15:59:57.765Z,11.31
2018-12-21T16:05:02.702Z,11.30
2018-12-21T16:10:09.306Z,11.31
2018-12-21T16:15:14.121Z,11.35
2018-12-21T16:20:18.896Z,11.37
2018-12-21T16:25:25.101Z,11.39
2018-12-21T16:30:29.946Z,11.42
2018-12-21T16:35:34.788Z,11.45
2018-12-21T16:40:39.628Z,11.43
2018-12-21T16:45:44.468Z,11.43
2018-12-21T16:50:49.307Z,11.50
2018-12-21T16:55:54.207Z,11.52
2018-12-21T17:00:58.989Z,11.50
2018-12-21T17:06:03.944Z,11.52
2018-12-21T17:16:46.028Z,11.62
2018-12-21T17:27:29.169Z,11.70
2018-12-21T17:38:02.388Z,11.71
2018-12-21T17:43:07.192Z,11.64
2018-12-21T17:48:12.069Z,11.63
2018-12-21T17:53:16.909Z,11.65
2018-12-21T17:58:22.029Z,11.69
2018-12-21T18:03:32.606Z,11.71
2018-12-21T18:08:37.441Z,11.73
2018-12-21T18:13:42.391Z,11.75
2018-12-21T18:18:47.330Z,11.76
2018-12-21T18:23:52.228Z,11.73
2018-12-21T18:28:57.088Z,11.70
2018-12-21T18:34:04.836Z,11.69
2018-12-21T18:39:10.109Z,11.69
2018-12-21T18:44:14.909Z,11.71
2018-12-21T18:49:19.868Z,11.75
2018-12-21T18:54:26.448Z,11.66
2018-12-21T18:59:31.269Z,11.62
2018-12-21T19:04:36.097Z,11.60
2018-12-21T19:09:41.012Z,11.59
2018-12-21T19:14:45.730Z,11.55
2018-12-21T19:19:50.689Z,11.55
2018-12-21T19:24:55.609Z,11.57
2018-12-21T19:30:00.636Z,11.47
2018-12-21T19:35:05.790Z,11.33
2018-12-21T19:40:11.970Z,11.20
2018-12-21T19:45:16.812Z,11.20
2018-12-21T19:50:21.709Z,11.25
2018-12-21T19:55:34.390Z,11.30
2018-12-21T20:06:19.529Z,11.35
2018-12-21T20:11:24.388Z,11.30
2018-12-21T20:16:29.409Z,11.27
2018-12-21T20:21:34.348Z,11.24
2018-12-21T20:26:42.230Z,11.22
2018-12-21T20:31:47.530Z,11.22
2018-12-21T20:36:52.471Z,11.19
2018-12-21T20:41:57.640Z,11.21
2018-12-21T20:47:04.568Z,11.18
2018-12-21T20:52:09.593Z,11.18
2018-12-21T20:57:21.842Z,11.21
2018-12-21T21:02:22.737Z,11.25
2018-12-21T21:07:27.556Z,11.16
2018-12-21T21:12:32.456Z,11.18
2018-12-21T21:17:37.378Z,11.22
2018-12-21T21:22:59.863Z,11.20
2018-12-21T21:28:04.767Z,11.13
2018-12-21T21:33:09.663Z,11.00
2018-12-21T21:38:14.602Z,10.95
2018-12-21T21:43:21.298Z,11.04
2018-12-21T21:48:26.118Z,11.09
2018-12-21T21:53:30.937Z,11.07
2018-12-21T21:58:35.748Z,11.07
2018-12-21T22:03:40.537Z,11.04
2018-12-21T22:08:45.552Z,11.10
2018-12-21T22:13:50.505Z,11.07
2018-12-21T22:18:55.568Z,11.05
2018-12-21T22:24:00.617Z,11.04
2018-12-21T22:29:05.591Z,11.05
2018-12-21T22:34:10.547Z,11.01
2018-12-21T22:39:15.362Z,11.07
2018-12-21T22:44:20.206Z,11.07
2018-12-21T22:49:25.641Z,11.06
2018-12-21T22:54:30.556Z,11.06
2018-12-21T22:59:35.517Z,11.12
2018-12-21T23:04:41.351Z,11.15
2018-12-21T23:09:46.197Z,11.13
2018-12-21T23:14:51.060Z,11.10
2018-12-21T23:19:55.938Z,11.08
2018-12-21T23:25:01.015Z,11.08
2018-12-21T23:30:07.080Z,11.16
2018-12-21T23:35:11.966Z,11.17
2018-12-21T23:40:16.800Z,11.18
2018-12-21T23:45:21.716Z,11.21
2018-12-21T23:50:26.611Z,11.25
2018-12-21T23:55:31.531Z,11.24
